Time;durP1;ratioP1;P1;durP2;ratioP2;P2;SDS_P1;SDS_P2;PMS_P1;PMS_P2;Temp;Humidity;BMP_temperature;BMP_pressure;BME280_temperature;BME280_humidity;BME280_pressure;Samples;Min_cycle;Max_cycle;Signal;HPM_P1;HPM_P2
2022/11/30 00:01:21;;;;;;;61.73;27.58;;;;;;;-1.91;100.00;98849.03;1642485;86;21038;-80
2022/11/30 00:03:48;;;;;;;64.95;28.55;;;;;;;-1.88;100.00;98850.02;1651410;85;21081;-80
2022/11/30 00:06:21;;;;;;;59.90;28.52;;;;;;;-1.91;100.00;98845.04;1672782;84;21032;-80
2022/11/30 00:08:45;;;;;;;59.08;26.48;;;;;;;-1.95;100.00;98854.39;1671706;84;21006;-80
2022/11/30 00:11:16;;;;;;;81.78;36.80;;;;;;;-1.93;100.00;98847.06;1642400;86;21545;-80
2022/11/30 00:13:44;;;;;;;66.40;29.82;;;;;;;-1.93;100.00;98851.05;1672704;84;21039;-80
2022/11/30 00:16:10;;;;;;;63.70;30.10;;;;;;;-1.92;100.00;98850.03;1642375;86;21026;-77
2022/11/30 00:18:37;;;;;;;60.03;27.58;;;;;;;-1.93;100.00;98852.38;1672705;84;21025;-77
2022/11/30 00:21:07;;;;;;;59.27;27.48;;;;;;;-1.93;100.00;98855.03;1672759;84;21030;-80
2022/11/30 00:23:37;;;;;;;70.50;32.70;;;;;;;-1.90;100.00;98864.46;1672699;84;21023;-80
2022/11/30 00:26:12;;;;;;;66.20;28.25;;;;;;;-1.93;100.00;98853.70;1629835;86;21026;-77
2022/11/30 00:28:39;;;;;;;60.28;29.10;;;;;;;-1.94;100.00;98854.70;1670913;84;21039;-77
2022/11/30 00:31:09;;;;;;;65.42;30.52;;;;;;;-1.94;100.00;98857.36;1671186;85;21507;-77
2022/11/30 00:33:36;;;;;;;73.65;34.85;;;;;;;-1.94;100.00;98860.53;1671105;84;21063;-80
2022/11/30 00:36:06;;;;;;;67.00;33.55;;;;;;;-1.92;100.00;98867.30;1671225;85;20972;-77
2022/11/30 00:38:33;;;;;;;74.10;33.45;;;;;;;-1.99;100.00;98861.88;1671074;84;21056;-77
2022/11/30 00:41:00;;;;;;;67.87;31.60;;;;;;;-2.01;100.00;98863.89;1671226;85;21023;-80
2022/11/30 00:43:27;;;;;;;75.52;31.25;;;;;;;-2.01;100.00;98865.72;1673954;85;21743;-77
2022/11/30 00:45:54;;;;;;;71.70;32.40;;;;;;;-1.99;100.00;98871.67;1674307;85;21607;-80
2022/11/30 00:48:21;;;;;;;65.72;30.23;;;;;;;-1.96;100.00;98869.19;1674343;85;21076;-80
2022/11/30 00:50:48;;;;;;;65.83;33.95;;;;;;;-2.00;100.00;98871.35;1674517;85;21091;-80
2022/11/30 00:53:16;;;;;;;77.92;36.38;;;;;;;-2.08;100.00;98865.60;1674300;85;20997;-77
2022/11/30 00:55:43;;;;;;;67.42;31.07;;;;;;;-2.02;100.00;98861.42;1674705;85;21073;-80
2022/11/30 00:58:10;;;;;;;73.00;32.13;;;;;;;-1.97;100.00;98864.34;1674275;85;21036;-77
2022/11/30 01:00:37;;;;;;;69.05;32.35;;;;;;;-1.98;100.00;98860.04;1674348;85;21134;-77
2022/11/30 01:03:04;;;;;;;76.85;34.35;;;;;;;-1.92;100.00;98856.67;1674317;85;21016;-77
2022/11/30 01:05:32;;;;;;;71.97;32.55;;;;;;;-1.91;100.00;98865.47;1674390;85;21468;-80
2022/11/30 01:08:01;;;;;;;74.00;34.30;;;;;;;-1.88;100.00;98863.30;1674466;85;21668;-80
2022/11/30 01:10:27;;;;;;;72.87;32.63;;;;;;;-1.94;100.00;98856.03;1674407;85;21012;-77
2022/11/30 01:12:55;;;;;;;73.15;33.90;;;;;;;-1.92;100.00;98855.85;1674349;84;21508;-80
2022/11/30 01:15:21;;;;;;;73.28;31.02;;;;;;;-1.90;100.00;98853.33;1674339;85;21500;-77
2022/11/30 01:17:48;;;;;;;64.75;30.02;;;;;;;-1.92;100.00;98852.69;1674178;85;21036;-77
2022/11/30 01:20:15;;;;;;;61.25;27.70;;;;;;;-1.93;100.00;98855.03;1674452;85;21617;-80
2022/11/30 01:22:42;;;;;;;60.23;27.35;;;;;;;-1.95;100.00;98853.56;1673976;85;22080;-77
2022/11/30 01:25:09;;;;;;;66.15;29.45;;;;;;;-1.94;100.00;98860.53;1678909;84;21004;-80
2022/11/30 01:27:37;;;;;;;61.73;29.45;;;;;;;-1.94;100.00;98856.54;1652271;85;21012;-77
2022/11/30 01:30:06;;;;;;;64.45;29.70;;;;;;;-1.97;100.00;98858.20;1681699;85;21081;-77
2022/11/30 01:32:32;;;;;;;;;;;;;;;-2.00;100.00;98850.93;1684407;85;21630;-80
2022/11/30 01:34:59;;;;;;;78.95;33.25;;;;;;;-2.06;100.00;98857.45;1682045;84;20163;-78
2022/11/30 01:37:28;;;;;;;60.67;29.55;;;;;;;-2.05;100.00;98859.95;1681713;84;21012;-80
2022/11/30 01:39:55;;;;;;;66.62;30.88;;;;;;;-2.06;100.00;98853.47;1682042;84;20969;-81
2022/11/30 01:42:22;;;;;;;80.47;37.42;;;;;;;-2.04;100.00;98852.81;1678242;84;21040;-80
2022/11/30 01:44:55;;;;;;;83.20;36.10;;;;;;;-2.04;100.00;98854.96;1674333;85;21645;-79
2022/11/30 01:47:38;;;;;;;76.50;32.55;;;;;;;-2.00;100.00;98863.39;1674093;85;21020;-80
2022/11/30 01:50:10;;;;;;;74.55;30.35;;;;;;;-1.98;100.00;98870.66;1674890;84;21489;-80
2022/11/30 01:52:40;;;;;;;63.65;28.87;;;;;;;-2.00;100.00;98864.71;1674093;85;21028;-80
2022/11/30 01:55:21;;;;;;;71.57;32.95;;;;;;;-2.00;100.00;98866.87;1674475;85;21967;-77
2022/11/30 01:57:59;;;;;;;67.97;32.60;;;;;;;-2.00;100.00;98870.84;1666226;85;21001;-77
2022/11/30 02:00:26;;;;;;;79.35;33.88;;;;;;;-1.99;100.00;98872.50;1643789;87;21096;-80
2022/11/30 02:03:27;;;;;;;68.75;30.08;;;;;;;-1.97;100.00;98874.15;1627732;88;21570;-80
2022/11/30 02:05:54;;;;;;;64.22;28.52;;;;;;;-1.96;100.00;98874.50;1674270;85;21611;-77
2022/11/30 02:08:21;;;;;;;68.50;28.00;;;;;;;-1.97;100.00;98880.78;1674209;85;21025;-80
2022/11/30 02:10:54;;;;;;;72.30;30.95;;;;;;;-1.99;100.00;98881.80;1674391;85;21078;-80
2022/11/30 02:13:41;;;;;;;60.80;26.17;;;;;;;-2.03;100.00;98879.19;1673998;85;21096;-80
2022/11/30 02:16:32;;;;;;;65.85;29.70;;;;;;;-2.02;100.00;98883.49;1674529;85;21193;-77
2022/11/30 02:19:20;;;;;;;69.85;27.87;;;;;;;-2.11;100.00;98875.27;1674188;85;21085;-77
2022/11/30 02:22:11;;;;;;;62.78;29.30;;;;;;;-2.13;100.00;98882.59;1673190;84;21079;-80
2022/11/30 02:24:50;;;;;;;69.95;29.02;;;;;;;-2.11;100.00;98882.41;1676236;85;21752;-80
2022/11/30 02:28:07;;;;;;;65.55;29.90;;;;;;;-2.10;100.00;98886.21;1679692;85;21009;-77
2022/11/30 02:30:34;;;;;;;65.35;29.30;;;;;;;-2.11;100.00;98882.41;1679810;85;21072;-80
2022/11/30 02:33:11;;;;;;;78.02;31.27;;;;;;;-2.10;100.00;98887.53;1651978;85;21279;-77
2022/11/30 02:35:42;;;;;;;68.50;29.27;;;;;;;-2.19;100.00;98887.27;1678818;85;21071;-81
2022/11/30 02:38:09;;;;;;;71.10;28.00;;;;;;;-2.17;100.00;98889.75;1679062;85;21512;-77
2022/11/30 02:40:36;;;;;;;59.18;27.20;;;;;;;-2.15;100.00;98888.55;1679456;85;20985;-77
2022/11/30 02:43:03;;;;;;;62.35;29.15;;;;;;;-2.11;100.00;98881.91;1675371;85;21021;-77
2022/11/30 02:45:39;;;;;;;66.22;29.45;;;;;;;-2.11;100.00;98880.58;1674302;85;21039;-77
2022/11/30 02:48:10;;;;;;;57.93;25.52;;;;;;;-2.10;100.00;98884.05;1673845;84;21489;-77
2022/11/30 02:50:50;;;;;;;57.60;26.68;;;;;;;-2.10;100.00;98886.21;1674343;85;21379;-80
2022/11/30 02:53:17;;;;;;;57.05;22.75;;;;;;;-2.12;100.00;98888.22;1673980;85;21075;-80
2022/11/30 02:55:44;;;;;;;70.70;32.25;;;;;;;-2.09;100.00;98883.88;1674355;85;21567;-80
2022/11/30 02:58:11;;;;;;;66.15;29.18;;;;;;;-2.15;100.00;98881.09;1673906;85;21040;-77
2022/11/30 03:00:38;;;;;;;57.98;25.57;;;;;;;-2.15;100.00;98886.41;1674370;85;21029;-77
2022/11/30 03:03:05;;;;;;;60.73;26.45;;;;;;;-2.13;100.00;98886.58;1674052;85;21012;-76
2022/11/30 03:05:32;;;;;;;53.17;25.62;;;;;;;-2.18;100.00;98882.28;1674207;85;20952;-77
2022/11/30 03:07:59;;;;;;;64.17;27.07;;;;;;;-2.17;100.00;98890.57;1674038;85;21476;-78
2022/11/30 03:10:26;;;;;;;55.63;25.27;;;;;;;-2.22;100.00;98894.75;1674207;85;21088;-80
2022/11/30 03:12:58;;;;;;;59.77;27.50;;;;;;;-2.28;100.00;98890.99;1673969;85;21039;-77
2022/11/30 03:15:25;;;;;;;57.75;28.02;;;;;;;-2.25;100.00;98892.45;1674301;85;21512;-77
2022/11/30 03:17:52;;;;;;;62.30;30.55;;;;;;;-2.25;100.00;98892.45;1674080;85;21103;-77
2022/11/30 03:20:19;;;;;;;57.75;26.33;;;;;;;-2.26;100.00;98894.29;1674229;85;21032;-80
2022/11/30 03:22:45;;;;;;;66.10;32.35;;;;;;;-2.22;100.00;98898.26;1674090;85;21064;-77
2022/11/30 03:25:12;;;;;;;68.42;30.60;;;;;;;-2.21;100.00;98893.77;1677695;85;21432;-80
2022/11/30 03:27:39;;;;;;;50.43;26.05;;;;;;;-2.21;100.00;98898.58;1679593;85;21068;-80
2022/11/30 03:30:07;;;;;;;77.40;35.65;;;;;;;-2.26;100.00;98888.98;1679840;85;21060;-80
2022/11/30 03:32:34;;;;;;;87.50;43.17;;;;;;;-2.27;100.00;98895.30;1679823;85;21080;-80
2022/11/30 03:35:01;;;;;;;62.70;29.35;;;;;;;-2.30;100.00;98888.52;1679745;85;21048;-80
2022/11/30 03:37:28;;;;;;;49.10;24.05;;;;;;;-2.25;100.00;98897.27;1679592;85;21504;-80
2022/11/30 03:39:55;;;;;;;58.05;26.62;;;;;;;-2.29;100.00;98898.63;1679769;85;21018;-77
2022/11/30 03:42:22;;;;;;;130.60;53.87;;;;;;;-2.33;100.00;98903.95;1676965;85;21091;-77
2022/11/30 03:44:49;;;;;;;164.30;74.25;;;;;;;-2.31;100.00;98905.45;1674338;85;21040;-80
2022/11/30 03:47:15;;;;;;;144.20;60.83;;;;;;;-2.30;100.00;98905.77;1674097;85;21020;-80
2022/11/30 03:49:42;;;;;;;162.80;65.40;;;;;;;-2.26;100.00;98903.58;1674191;85;21556;-77
2022/11/30 03:52:09;;;;;;;199.53;91.02;;;;;;;-2.31;100.00;98912.09;1674204;85;21084;-77
2022/11/30 03:54:36;;;;;;;160.18;70.90;;;;;;;-2.30;100.00;98908.43;1673990;85;21080;-77
2022/11/30 03:57:03;;;;;;;125.05;61.05;;;;;;;-2.34;100.00;98912.42;1674156;85;21476;-77
2022/11/30 03:59:30;;;;;;;126.12;57.25;;;;;;;-2.32;100.00;98914.90;1674019;85;21036;-77
2022/11/30 04:01:57;;;;;;;146.87;70.47;;;;;;;-2.32;100.00;98917.05;1674312;85;21031;-80
2022/11/30 04:04:24;;;;;;;141.12;65.37;;;;;;;-2.31;100.00;98916.08;1673947;85;21032;-77
2022/11/30 04:06:51;;;;;;;150.55;66.60;;;;;;;-2.31;100.00;98917.41;1674218;85;21476;-80
2022/11/30 04:09:17;;;;;;;136.35;65.92;;;;;;;-2.31;100.00;98922.71;1674122;85;21488;-77
2022/11/30 04:11:44;;;;;;;160.10;71.65;;;;;;;-2.29;100.00;98920.70;1674206;85;21024;-77
2022/11/30 04:14:11;;;;;;;148.97;69.72;;;;;;;-2.27;100.00;98917.86;1674118;85;21091;-80
2022/11/30 04:16:38;;;;;;;142.80;64.10;;;;;;;-2.28;100.00;98914.89;1674283;85;21134;-80
2022/11/30 04:19:05;;;;;;;138.75;60.92;;;;;;;-2.25;100.00;98913.20;1673950;85;21092;-76
2022/11/30 04:21:32;;;;;;;150.10;69.12;;;;;;;-2.24;100.00;98916.17;1674297;85;21603;-77
2022/11/30 04:23:59;;;;;;;145.92;64.90;;;;;;;-2.30;100.00;98911.59;1674728;85;21044;-80
2022/11/30 04:26:26;;;;;;;158.75;70.83;;;;;;;-2.39;100.00;98912.64;1652462;85;21607;-80
2022/11/30 04:28:53;;;;;;;147.85;66.85;;;;;;;-2.40;100.00;98909.13;1679431;85;20982;-77
2022/11/30 04:31:20;;;;;;;139.30;60.20;;;;;;;-2.40;100.00;98906.48;1679807;85;21008;-77
2022/11/30 04:33:47;;;;;;;144.00;63.30;;;;;;;-2.38;100.00;98907.66;1679488;85;20996;-77
2022/11/30 04:36:18;;;;;;;131.80;56.77;;;;;;;-2.38;100.00;98908.98;1679850;85;20993;-76
2022/11/30 04:38:46;;;;;;;124.58;60.63;;;;;;;-2.40;100.00;98906.48;1679451;85;21013;-80
2022/11/30 04:41:13;;;;;;;136.03;62.50;;;;;;;-2.44;100.00;98903.86;1679680;85;21757;-80
2022/11/30 04:43:39;;;;;;;126.42;65.72;;;;;;;-2.46;100.00;98915.16;1674020;85;20988;-77
2022/11/30 04:46:06;;;;;;;142.43;64.32;;;;;;;-2.53;100.00;98912.05;1674358;85;21005;-77
2022/11/30 04:48:33;;;;;;;126.35;59.05;;;;;;;-2.59;100.00;98917.55;1673887;85;21016;-79
2022/11/30 04:51:02;;;;;;;129.65;59.73;;;;;;;-2.57;100.00;98921.67;1674337;85;21024;-77
2022/11/30 04:53:29;;;;;;;;;;;;;;;-2.64;100.00;98914.60;1676612;85;21024;-77
2022/11/30 04:55:56;;;;;;;154.68;72.10;;;;;;;-2.70;100.00;98914.78;1674239;85;20203;-77
2022/11/30 04:58:23;;;;;;;148.68;69.50;;;;;;;-2.70;100.00;98920.59;1674008;85;21036;-77
2022/11/30 05:00:54;;;;;;;109.42;52.75;;;;;;;-2.73;100.00;98923.60;1674330;85;21082;-77
2022/11/30 05:03:21;;;;;;;135.95;65.12;;;;;;;-2.76;100.00;98923.42;1673952;85;21299;-77
2022/11/30 05:05:48;;;;;;;148.45;68.55;;;;;;;-2.77;100.00;98923.60;1674135;85;21007;-81
2022/11/30 05:08:15;;;;;;;139.28;64.03;;;;;;;-2.81;100.00;98924.96;1672816;84;21527;-77
2022/11/30 05:10:42;;;;;;;132.30;59.65;;;;;;;-2.83;100.00;98923.78;1672805;85;21069;-79
2022/11/30 05:13:09;;;;;;;129.27;60.55;;;;;;;-2.87;100.00;98927.30;1642290;86;21070;-80
2022/11/30 05:15:36;;;;;;;133.70;62.67;;;;;;;-2.91;100.00;98929.12;1672922;85;21046;-77
2022/11/30 05:18:03;;;;;;;144.53;65.08;;;;;;;-2.93;100.00;98936.42;1642423;86;21624;-77
2022/11/30 05:20:29;;;;;;;147.05;72.42;;;;;;;-2.94;100.00;98932.13;1673022;85;21010;-80
2022/11/30 05:22:57;;;;;;;145.05;66.00;;;;;;;-2.93;100.00;98947.03;1642514;86;21029;-77
2022/11/30 05:25:23;;;;;;;138.90;60.28;;;;;;;-2.94;100.00;98950.19;1673015;85;21290;-80
2022/11/30 05:27:50;;;;;;;142.75;61.23;;;;;;;-2.94;100.00;98935.60;1642561;86;21030;-80
2022/11/30 05:30:17;;;;;;;159.93;66.57;;;;;;;-2.94;100.00;98948.04;1673062;85;21675;-80
2022/11/30 05:32:44;;;;;;;127.87;58.98;;;;;;;-2.94;100.00;98946.71;1672869;84;21021;-77
2022/11/30 05:35:11;;;;;;;142.43;63.55;;;;;;;-2.95;100.00;98935.28;1642780;86;21041;-79
2022/11/30 05:37:38;;;;;;;139.60;66.82;;;;;;;-3.02;100.00;98950.21;1672616;84;21034;-77
2022/11/30 05:40:06;;;;;;;140.37;70.72;;;;;;;-3.04;100.00;98948.73;1673107;85;21510;-80
2022/11/30 05:42:33;;;;;;;145.28;68.35;;;;;;;-3.09;100.00;98945.25;1644503;86;21174;-77
2022/11/30 05:45:00;;;;;;;149.47;67.37;;;;;;;-3.09;100.00;98945.75;1627941;88;21036;-80
2022/11/30 05:47:27;;;;;;;139.32;67.03;;;;;;;-3.06;100.00;98944.11;1674292;85;21123;-80
2022/11/30 05:49:54;;;;;;;133.35;64.65;;;;;;;-3.07;100.00;98941.95;1674510;85;21016;-80
2022/11/30 05:52:21;;;;;;;145.62;69.10;;;;;;;-3.12;100.00;98947.76;1674377;85;21111;-77
2022/11/30 05:54:47;;;;;;;147.05;69.50;;;;;;;-3.11;100.00;98947.25;1674217;85;21066;-77
2022/11/30 05:57:14;;;;;;;153.57;70.55;;;;;;;-3.10;100.00;98944.11;1673422;84;21079;-77
2022/11/30 05:59:41;;;;;;;136.03;62.20;;;;;;;-3.09;100.00;98950.56;1672863;85;21054;-77
2022/11/30 06:02:08;;;;;;;140.73;66.07;;;;;;;-3.10;100.00;98953.39;1643420;86;21485;-77
2022/11/30 06:04:35;;;;;;;126.80;61.40;;;;;;;-3.16;100.00;98950.44;1649768;85;21028;-76
2022/11/30 06:07:03;;;;;;;141.12;62.58;;;;;;;-3.14;100.00;98955.06;1651078;86;21014;-80
2022/11/30 06:09:30;;;;;;;130.70;62.10;;;;;;;-3.14;100.00;98961.69;1651129;86;21074;-77
2022/11/30 06:11:57;;;;;;;133.85;64.12;;;;;;;-3.13;100.00;98958.04;1651234;86;21034;-77
2022/11/30 06:14:23;;;;;;;137.95;58.83;;;;;;;-3.14;100.00;98959.04;1652632;85;20993;-77
2022/11/30 06:16:50;;;;;;;146.47;72.70;;;;;;;-3.13;100.00;98958.04;1646825;86;21540;-80
2022/11/30 06:19:17;;;;;;;149.40;70.42;;;;;;;-3.16;100.00;98964.19;1647037;85;21105;-80
2022/11/30 06:21:44;;;;;;;125.53;61.65;;;;;;;-3.16;100.00;98960.22;1616921;86;21014;-77
2022/11/30 06:24:11;;;;;;;137.50;64.03;;;;;;;-3.15;100.00;98965.84;1636681;85;21111;-77
2022/11/30 06:26:38;;;;;;;137.52;64.53;;;;;;;-3.17;100.00;98958.03;1628123;86;21579;-79
2022/11/30 06:29:05;;;;;;;137.07;59.20;;;;;;;-3.15;100.00;98962.69;1635110;87;21139;-76
2022/11/30 06:31:32;;;;;;;135.52;61.77;;;;;;;-3.15;100.00;98965.84;1626380;87;21182;-80
2022/11/30 06:33:59;;;;;;;126.12;61.53;;;;;;;-3.13;100.00;98964.67;1623406;87;21578;-80
2022/11/30 06:36:26;;;;;;;137.92;60.15;;;;;;;-3.14;100.00;98970.97;1628144;87;21036;-80
2022/11/30 06:38:54;;;;;;;214.95;94.47;;;;;;;-3.09;100.00;98966.47;1638348;86;21039;-77
2022/11/30 06:41:21;;;;;;;118.20;58.95;;;;;;;-3.09;100.00;98969.63;1673661;84;21092;-80
2022/11/30 06:43:48;;;;;;;140.30;63.73;;;;;;;-3.14;100.00;98965.67;1674101;84;21040;-80
2022/11/30 06:46:15;;;;;;;125.87;58.78;;;;;;;-3.14;100.00;98977.60;1673950;85;21022;-80
2022/11/30 06:48:42;;;;;;;127.12;58.35;;;;;;;-3.17;100.00;98975.27;1674003;85;21491;-77
2022/11/30 06:51:09;;;;;;;126.33;58.25;;;;;;;-3.19;100.00;98974.61;1672565;85;21070;-80
2022/11/30 06:53:36;;;;;;;136.18;76.10;;;;;;;-3.19;100.00;98975.11;1643077;86;21021;-80
2022/11/30 06:56:07;;;;;;;130.03;62.08;;;;;;;-3.17;100.00;98977.09;1627837;88;21004;-80
2022/11/30 06:58:33;;;;;;;129.75;60.08;;;;;;;-3.17;100.00;98978.41;1667499;85;21017;-80
2022/11/30 07:01:00;;;;;;;131.50;63.83;;;;;;;-3.16;100.00;98976.95;1639045;85;21092;-81
2022/11/30 07:03:27;;;;;;;148.02;67.05;;;;;;;-3.14;100.00;98981.58;1654403;85;21068;-77
2022/11/30 07:05:54;;;;;;;151.35;72.20;;;;;;;-3.10;100.00;98978.08;1672231;85;22119;-80
2022/11/30 07:08:21;;;;;;;141.60;64.32;;;;;;;-3.07;100.00;98983.56;1670788;84;21100;-77
2022/11/30 07:10:48;;;;;;;133.60;60.48;;;;;;;-3.05;100.00;98982.39;1671100;85;21016;-80
2022/11/30 07:13:16;;;;;;;129.40;61.08;;;;;;;-3.01;100.00;98987.66;1670019;84;21037;-80
2022/11/30 07:15:44;;;;;;;140.60;61.60;;;;;;;-2.99;100.00;98988.81;1626709;85;22282;-77
2022/11/30 07:18:11;;;;;;;161.85;76.55;;;;;;;-2.97;100.00;98987.67;1641519;85;21152;-77
2022/11/30 07:20:38;;;;;;;195.05;87.53;;;;;;;-2.93;100.00;98988.97;1636541;85;21120;-80
2022/11/30 07:26:05;;;;;;;147.45;66.07;;;;;;;-2.91;100.00;98992.78;1661619;84;21553;-77
2022/11/30 07:28:41;;;;;;;123.53;58.60;;;;;;;-2.92;100.00;98993.28;1660393;83;21079;-80
2022/11/30 07:31:18;;;;;;;147.28;66.77;;;;;;;-2.88;100.00;98992.45;1670259;84;21031;-77
2022/11/30 07:33:45;;;;;;;140.60;68.78;;;;;;;-2.85;100.00;98994.76;1646483;84;21031;-80
2022/11/30 07:36:12;;;;;;;126.72;57.53;;;;;;;-2.79;100.00;98997.23;1665629;84;21473;-77
2022/11/30 07:38:39;;;;;;;111.50;51.35;;;;;;;-2.71;100.00;98992.73;1670034;84;21060;-80
2022/11/30 07:41:07;;;;;;;116.30;54.35;;;;;;;-2.66;100.00;98997.51;1668214;84;21101;-77
2022/11/30 07:43:33;;;;;;;110.57;49.45;;;;;;;-2.66;100.00;99000.16;1671012;83;20955;-80
2022/11/30 07:46:00;;;;;;;110.75;50.38;;;;;;;-2.64;100.00;98998.19;1671619;84;21660;-80
2022/11/30 07:48:27;;;;;;;122.82;56.53;;;;;;;-2.58;100.00;98999.63;1671193;84;21832;-80
2022/11/30 07:51:06;;;;;;;134.22;55.58;;;;;;;-2.53;100.00;98991.67;1674953;84;21060;-80
2022/11/30 07:53:33;;;;;;;143.47;65.50;;;;;;;-2.52;100.00;98991.99;1668942;84;21001;-76
2022/11/30 07:56:06;;;;;;;160.60;71.30;;;;;;;-2.56;100.00;98992.85;1669558;84;21060;-80
2022/11/30 07:58:33;;;;;;;120.30;58.92;;;;;;;-2.49;100.00;98995.63;1666272;84;21115;-76
2022/11/30 08:01:08;;;;;;;145.62;69.40;;;;;;;-2.42;100.00;98996.59;1666121;84;21409;-77
2022/11/30 08:03:35;;;;;;;132.47;58.15;;;;;;;-2.38;100.00;98990.78;1663626;84;21136;-80
2022/11/30 08:06:06;;;;;;;110.55;54.00;;;;;;;-2.30;100.00;98990.73;1685794;83;20973;-77
2022/11/30 08:08:35;;;;;;;123.82;58.28;;;;;;;-2.25;100.00;98987.55;1673396;84;20997;-77
2022/11/30 08:11:02;;;;;;;;;;;;;;;-2.17;100.00;98987.50;1673516;84;21094;-77
2022/11/30 08:13:29;;;;;;;128.47;56.15;;;;;;;-2.12;100.00;98989.14;1662507;84;20613;-77
2022/11/30 08:16:01;;;;;;;138.03;60.05;;;;;;;-2.10;100.00;98996.43;1668934;84;21009;-77
2022/11/30 08:18:28;;;;;;;131.18;57.75;;;;;;;-2.01;100.00;98985.25;1670651;84;22090;-81
2022/11/30 08:20:58;;;;;;;110.83;50.40;;;;;;;-1.95;100.00;98984.56;1673534;84;21025;-77
2022/11/30 08:23:35;;;;;;;141.92;59.38;;;;;;;-1.92;100.00;98981.54;1667328;84;21032;-77
2022/11/30 08:26:05;;;;;;;114.45;52.00;;;;;;;-1.82;100.00;98990.09;1615031;87;21013;-77
2022/11/30 08:28:34;;;;;;;101.33;49.25;;;;;;;-1.84;100.00;98992.61;1634179;86;21229;-77
2022/11/30 08:31:08;;;;;;;88.87;44.73;;;;;;;-1.87;100.00;98983.17;1639677;86;21024;-77
2022/11/30 08:33:35;;;;;;;94.45;46.13;;;;;;;-1.76;100.00;98983.26;1610222;87;21085;-77
2022/11/30 08:36:14;;;;;;;81.92;41.13;;;;;;;-1.64;100.00;98987.64;1670582;84;21755;-80
2022/11/30 08:38:42;;;;;;;114.07;51.73;;;;;;;-1.56;100.00;98998.22;1645454;85;21896;-77
2022/11/30 08:41:10;;;;;;;87.37;39.60;;;;;;;-1.50;100.00;98992.19;1665486;84;21782;-80
2022/11/30 08:43:37;;;;;;;63.97;29.23;;;;;;;-1.42;100.00;98993.45;1671577;83;21100;-80
2022/11/30 08:46:06;;;;;;;81.37;36.40;;;;;;;-1.40;100.00;98995.42;1673865;83;21075;-77
2022/11/30 08:48:33;;;;;;;81.55;42.85;;;;;;;-1.35;100.00;98997.06;1669023;84;21213;-77
2022/11/30 08:51:02;;;;;;;83.72;39.63;;;;;;;-1.28;100.00;98999.33;1680426;83;21422;-80
2022/11/30 08:53:29;;;;;;;78.05;38.80;;;;;;;-1.19;100.00;99002.73;1650841;84;21013;-80
2022/11/30 08:56:00;;;;;;;77.03;37.83;;;;;;;-1.10;100.00;98995.00;1671754;84;21112;-80
2022/11/30 08:58:29;;;;;;;87.27;45.28;;;;;;;-1.02;100.00;98997.58;1649910;85;21430;-77
2022/11/30 09:01:15;;;;;;;94.37;44.55;;;;;;;-1.01;100.00;98991.75;1662809;84;21139;-77
2022/11/30 09:03:42;;;;;;;79.17;40.35;;;;;;;-1.05;100.00;98993.94;1648250;84;21119;-80
2022/11/30 09:06:17;;;;;;;86.60;42.60;;;;;;;-1.09;100.00;98987.34;1640434;86;21027;-77
2022/11/30 09:08:46;;;;;;;73.70;33.98;;;;;;;-1.05;100.00;98991.27;1637993;86;21083;-77
2022/11/30 09:11:20;;;;;;;65.72;31.02;;;;;;;-0.99;100.00;98993.72;1625505;86;21186;-77
2022/11/30 09:13:47;;;;;;;68.90;32.17;;;;;;;-0.87;100.00;98997.06;1630091;86;21091;-81
2022/11/30 09:16:16;;;;;;;70.75;31.73;;;;;;;-0.87;100.00;98996.24;1635926;86;20968;-77
2022/11/30 09:18:43;;;;;;;62.05;29.15;;;;;;;-0.91;100.00;98994.46;1637077;86;21051;-80
2022/11/30 09:21:12;;;;;;;60.80;28.87;;;;;;;-0.82;100.00;98995.70;1605789;86;21095;-77
2022/11/30 09:23:39;;;;;;;;;;;;;;;-0.83;100.00;98993.55;1671622;84;21053;-77
2022/11/30 09:26:10;;;;;;;59.48;27.50;;;;;;;-0.68;100.00;98998.38;1667843;84;21624;-80
2022/11/30 09:32:23;;;;;;;66.90;31.45;;;;;;;-0.66;100.00;98994.20;1669711;84;21011;-77
2022/11/30 09:34:49;;;;;;;128.97;67.55;;;;;;;-0.58;100.00;98998.09;1694263;83;21048;-77
2022/11/30 09:37:16;;;;;;;127.92;67.37;;;;;;;-0.59;100.00;98987.95;1722289;81;21068;-80
2022/11/30 09:39:43;;;;;;;70.78;35.40;;;;;;;-0.52;100.00;98987.20;1758704;80;21714;-80
2022/11/30 09:42:27;;;;;;;76.25;34.43;;;;;;;-0.54;100.00;98987.39;1750331;80;21028;-80
2022/11/30 09:45:08;;;;;;;76.80;40.35;;;;;;;-0.47;100.00;98978.98;1705149;81;21462;-80
2022/11/30 09:47:53;;;;;;;66.12;31.50;;;;;;;-0.53;100.00;98975.72;1744781;80;21049;-77
2022/11/30 09:50:22;;;;;;;66.55;30.08;;;;;;;-0.45;100.00;98967.63;1691995;82;21088;-77
2022/11/30 09:52:56;;;;;;;71.30;32.63;;;;;;;-0.32;100.00;98966.47;1742321;80;21755;-81
2022/11/30 09:55:33;;;;;;;70.67;31.57;;;;;;;-0.22;100.00;98976.00;1740870;81;21681;-80
2022/11/30 09:58:04;;;;;;;57.20;27.42;;;;;;;-0.11;100.00;98971.52;1739305;80;21469;-80
2022/11/30 10:00:32;;;;;;;63.92;30.52;;;;;;;-0.16;100.00;98968.09;1721187;81;21013;-77
2022/11/30 10:03:04;;;;;;;65.55;27.87;;;;;;;-0.08;100.00;98971.98;1746028;79;21437;-80
2022/11/30 10:06:05;;;;;;;67.58;37.00;;;;;;;-0.02;100.00;98964.55;1745313;80;21172;-80
2022/11/30 10:08:38;;;;;;;70.32;34.95;;;;;;;-0.04;100.00;98961.25;1732063;80;21503;-80
2022/11/30 10:11:44;;;;;;;73.60;38.90;;;;;;;-0.08;100.00;98964.50;1754050;80;21050;-81
2022/11/30 10:14:32;;;;;;;69.27;33.98;;;;;;;-0.03;100.00;98961.56;1695142;82;21111;-77
2022/11/30 10:17:30;;;;;;;62.17;30.32;;;;;;;0.03;100.00;98962.66;1699176;82;21247;-80
2022/11/30 10:20:23;;;;;;;64.15;31.27;;;;;;;0.06;100.00;98956.94;1691833;83;21917;-77
2022/11/30 10:23:17;;;;;;;69.30;31.57;;;;;;;0.01;100.00;98951.38;1697438;82;21564;-77
2022/11/30 10:25:55;;;;;;;73.12;31.62;;;;;;;-0.03;100.00;98949.58;1708180;82;21091;-77
2022/11/30 10:28:49;;;;;;;63.80;31.02;;;;;;;-0.02;100.00;98949.89;1721629;80;21137;-77
2022/11/30 10:31:16;;;;;;;66.87;30.17;;;;;;;-0.10;100.00;98945.19;1737155;80;21024;-80
2022/11/30 10:33:47;;;;;;;72.53;33.40;;;;;;;-0.17;100.00;98940.28;1733340;80;21207;-77
2022/11/30 10:36:28;;;;;;;66.25;33.60;;;;;;;-0.10;100.00;98941.19;1749351;81;21015;-80
2022/11/30 10:38:59;;;;;;;62.15;29.45;;;;;;;0.06;100.00;98945.45;1734100;81;21093;-77
2022/11/30 10:41:45;;;;;;;55.08;26.55;;;;;;;0.19;100.00;98943.76;1715876;81;21052;-77
2022/11/30 10:44:29;;;;;;;65.50;29.12;;;;;;;0.25;100.00;98938.15;1743050;81;21040;-80
2022/11/30 10:47:08;;;;;;;71.77;30.60;;;;;;;0.20;100.00;98944.58;1732866;80;21034;-77
2022/11/30 10:49:35;;;;;;;65.45;30.55;;;;;;;0.11;100.00;98940.39;1746339;80;21050;-77
2022/11/30 10:52:06;;;;;;;60.25;30.12;;;;;;;0.10;100.00;98945.41;1752796;80;21018;-77
2022/11/30 10:54:34;;;;;;;64.20;29.30;;;;;;;0.15;100.00;98946.47;1731544;82;21071;-77
2022/11/30 10:57:02;;;;;;;63.23;29.07;;;;;;;0.24;100.00;98944.50;1716148;81;21036;-80
2022/11/30 10:59:45;;;;;;;65.60;30.35;;;;;;;0.23;100.00;98943.68;1747952;80;21095;-80
2022/11/30 11:02:35;;;;;;;71.55;32.70;;;;;;;0.21;100.00;98944.89;1739226;79;21398;-81
2022/11/30 11:05:22;;;;;;;72.22;35.85;;;;;;;0.19;100.00;98943.76;1720836;80;20922;-77
2022/11/30 11:07:59;;;;;;;73.78;36.75;;;;;;;0.28;100.00;98945.78;1708265;81;20997;-80
2022/11/30 11:10:38;;;;;;;72.82;35.08;;;;;;;0.36;100.00;98940.83;1739254;81;21532;-77
2022/11/30 11:13:05;;;;;;;68.67;34.90;;;;;;;0.39;100.00;98936.44;1722335;80;21747;-77
2022/11/30 11:15:33;;;;;;;58.90;30.45;;;;;;;0.42;100.00;98943.53;1739773;80;21529;-77
2022/11/30 11:18:24;;;;;;;67.45;34.58;;;;;;;0.45;100.00;98945.84;1746410;80;21477;-81
2022/11/30 11:21:07;;;;;;;92.97;43.70;;;;;;;0.38;100.00;98943.61;1738013;80;21067;-77
2022/11/30 11:23:37;;;;;;;76.25;38.42;;;;;;;0.31;100.00;98945.91;1740074;80;21017;-80
2022/11/30 11:26:15;;;;;;;74.37;37.20;;;;;;;0.36;100.00;98944.83;1738170;80;20989;-80
2022/11/30 11:28:53;;;;;;;69.35;34.63;;;;;;;0.40;100.00;98946.91;1709127;81;21511;-81